createdAt,value
2023-03-04T00:00:42.185Z,-0.59
2023-03-04T00:01:43.979Z,-0.63
2023-03-04T00:02:45.621Z,-0.67
2023-03-04T00:03:47.164Z,-0.68
2023-03-04T00:04:48.723Z,-0.71
2023-03-04T00:05:50.234Z,-0.65
2023-03-04T00:06:51.788Z,-0.55
2023-03-04T00:07:53.299Z,-0.55
2023-03-04T00:08:54.854Z,-0.49
2023-03-04T00:09:56.387Z,-0.50
2023-03-04T00:10:57.963Z,-0.55
2023-03-04T00:11:59.503Z,-0.56
2023-03-04T00:13:01.061Z,-0.64
2023-03-04T00:14:02.684Z,-0.63
2023-03-04T00:15:04.461Z,-0.61
2023-03-04T00:16:06.413Z,-0.71
2023-03-04T00:17:08.818Z,-0.76
2023-03-04T00:18:10.327Z,-0.75
2023-03-04T00:19:11.885Z,-0.79
2023-03-04T00:20:14.342Z,-0.79
2023-03-04T00:21:15.877Z,-0.79
2023-03-04T00:22:17.421Z,-0.80
2023-03-04T00:23:18.971Z,-0.75
2023-03-04T00:24:20.486Z,-0.74
2023-03-04T00:25:22.085Z,-0.72
2023-03-04T00:26:23.642Z,-0.69
2023-03-04T00:27:25.252Z,-0.68
2023-03-04T00:28:26.785Z,-0.62
2023-03-04T00:29:28.304Z,-0.57
2023-03-04T00:30:29.958Z,-0.50
2023-03-04T00:31:31.483Z,-0.52
2023-03-04T00:32:33.157Z,-0.55
2023-03-04T00:33:35.294Z,-0.50
2023-03-04T00:34:36.838Z,-0.45
2023-03-04T00:35:38.457Z,-0.45
2023-03-04T00:36:40.042Z,-0.46
2023-03-04T00:37:41.625Z,-0.46
2023-03-04T00:38:44.133Z,-0.46
2023-03-04T00:39:45.694Z,-0.46
2023-03-04T00:40:47.211Z,-0.46
2023-03-04T00:41:48.761Z,-0.46
2023-03-04T00:42:50.306Z,-0.47
2023-03-04T00:43:52.076Z,-0.44
2023-03-04T00:44:53.643Z,-0.45
2023-03-04T00:45:55.622Z,-0.52
2023-03-04T00:46:57.184Z,-0.50
2023-03-04T00:47:58.774Z,-0.51
2023-03-04T00:49:00.367Z,-0.47
2023-03-04T00:50:02.053Z,-0.42
2023-03-04T00:51:04.457Z,-0.49
2023-03-04T00:52:06.146Z,-0.46
2023-03-04T00:53:07.737Z,-0.48
2023-03-04T00:54:09.280Z,-0.49
2023-03-04T00:55:10.929Z,-0.49
2023-03-04T00:56:12.612Z,-0.50
2023-03-04T00:57:14.287Z,-0.62
2023-03-04T00:58:15.858Z,-0.73
2023-03-04T00:59:17.376Z,-0.74
2023-03-04T01:00:19.523Z,-0.76
2023-03-04T01:01:21.082Z,-0.79
2023-03-04T01:02:22.640Z,-0.85
2023-03-04T01:03:24.210Z,-0.85
2023-03-04T01:04:25.895Z,-0.86
2023-03-04T01:05:27.692Z,-0.98
2023-03-04T01:06:29.281Z,-0.96
2023-03-04T01:07:30.831Z,-0.90
2023-03-04T01:08:32.357Z,-0.85
2023-03-04T01:09:33.928Z,-0.83
2023-03-04T01:10:37.252Z,-0.82
2023-03-04T01:11:38.776Z,-0.91
2023-03-04T01:12:40.425Z,-0.88
2023-03-04T01:13:41.986Z,-0.87
2023-03-04T01:14:44.829Z,-0.82
2023-03-04T01:15:48.015Z,-0.76
2023-03-04T01:16:49.989Z,-0.73
2023-03-04T01:17:51.659Z,-0.72
2023-03-04T01:18:53.244Z,-0.71
2023-03-04T01:19:54.846Z,-0.62
2023-03-04T01:20:56.432Z,-0.61
2023-03-04T01:21:57.968Z,-0.61
2023-03-04T01:22:59.528Z,-0.66
2023-03-04T01:24:01.099Z,-0.70
2023-03-04T01:25:03.304Z,-0.68
2023-03-04T01:26:04.989Z,-0.74
2023-03-04T01:27:06.714Z,-0.82
2023-03-04T01:28:08.316Z,-0.87
2023-03-04T01:29:09.985Z,-0.91
2023-03-04T01:30:12.304Z,-0.93
2023-03-04T01:31:13.883Z,-0.90
2023-03-04T01:32:15.477Z,-0.85
2023-03-04T01:33:17.077Z,-0.85
2023-03-04T01:34:18.593Z,-0.81
2023-03-04T01:35:20.175Z,-0.83
2023-03-04T01:36:21.711Z,-0.82
2023-03-04T01:37:23.221Z,-0.82
2023-03-04T01:38:24.943Z,-0.83
2023-03-04T01:39:26.467Z,-0.83
2023-03-04T01:40:28.101Z,-0.82
2023-03-04T01:41:29.660Z,-0.77
2023-03-04T01:42:34.287Z,-0.74
2023-03-04T01:43:37.469Z,-0.75
2023-03-04T01:44:39.143Z,-0.73
2023-03-04T01:45:40.739Z,-0.73
2023-03-04T01:46:51.631Z,-0.78
2023-03-04T01:47:53.263Z,-0.83
2023-03-04T01:48:55.369Z,-0.83
2023-03-04T01:49:58.593Z,-0.85
2023-03-04T01:51:00.520Z,-0.83
2023-03-04T01:52:02.108Z,-0.79
2023-03-04T01:53:04.082Z,-0.81
2023-03-04T01:54:05.613Z,-0.81
2023-03-04T01:55:15.985Z,-0.77
2023-03-04T01:56:34.254Z,-0.75
2023-03-04T01:57:39.307Z,-0.76
2023-03-04T01:58:40.952Z,-0.77
2023-03-04T01:59:42.488Z,-0.77
2023-03-04T02:00:44.303Z,-0.73
2023-03-04T02:01:55.203Z,-0.73
2023-03-04T02:03:07.105Z,-0.75
2023-03-04T02:04:09.361Z,-0.74
2023-03-04T02:05:11.095Z,-0.76
2023-03-04T02:06:12.650Z,-0.77
2023-03-04T02:07:14.199Z,-0.74
2023-03-04T02:08:18.379Z,-0.72
2023-03-04T02:09:21.065Z,-0.70
2023-03-04T02:10:22.907Z,-0.74
2023-03-04T02:11:25.015Z,-0.75
2023-03-04T02:12:27.058Z,-0.75
2023-03-04T02:13:28.665Z,-0.71
2023-03-04T02:14:30.687Z,-0.68
2023-03-04T02:15:32.518Z,-0.72
2023-03-04T02:16:34.780Z,-0.72
2023-03-04T02:17:36.496Z,-0.70
2023-03-04T02:18:38.903Z,-0.69
2023-03-04T02:20:19.197Z,-0.67
2023-03-04T02:21:31.400Z,-0.61
2023-03-04T02:22:38.831Z,-0.58
2023-03-04T02:23:52.085Z,-0.57
2023-03-04T02:25:04.897Z,-0.55
2023-03-04T02:26:16.282Z,-0.59
2023-03-04T02:27:20.405Z,-0.60
2023-03-04T02:28:23.278Z,-0.62
2023-03-04T02:29:25.062Z,-0.62
2023-03-04T02:30:26.702Z,-0.66
2023-03-04T02:31:32.991Z,-0.67
2023-03-04T02:32:34.740Z,-0.68
2023-03-04T02:33:36.357Z,-0.68
2023-03-04T02:34:49.771Z,-0.66
2023-03-04T02:35:51.354Z,-0.62
2023-03-04T02:36:54.492Z,-0.61
2023-03-04T02:37:56.079Z,-0.61
2023-03-04T02:39:04.736Z,-0.63
2023-03-04T02:40:10.027Z,-0.72
2023-03-04T02:41:18.173Z,-0.73
2023-03-04T02:42:19.962Z,-0.71
2023-03-04T02:43:21.546Z,-0.69
2023-03-04T02:44:27.530Z,-0.67
2023-03-04T02:45:49.608Z,-0.65
2023-03-04T02:46:51.677Z,-0.64
2023-03-04T02:47:53.204Z,-0.78
2023-03-04T02:48:54.896Z,-0.80
2023-03-04T02:49:56.564Z,-0.80
2023-03-04T02:50:58.176Z,-0.79
2023-03-04T02:52:04.141Z,-0.85
2023-03-04T02:53:06.978Z,-1.02
2023-03-04T02:54:20.031Z,-1.06
2023-03-04T02:55:21.589Z,-1.00
2023-03-04T02:56:23.557Z,-1.01
2023-03-04T02:57:25.080Z,-1.01
2023-03-04T02:58:29.410Z,-1.00
2023-03-04T02:59:31.008Z,-0.99
2023-03-04T03:00:32.642Z,-0.98
2023-03-04T03:01:34.586Z,-0.96
2023-03-04T03:02:36.166Z,-0.93
2023-03-04T03:03:37.757Z,-0.90
2023-03-04T03:04:40.979Z,-0.88
2023-03-04T03:05:45.853Z,-0.87
2023-03-04T03:06:47.966Z,-0.87
2023-03-04T03:07:50.036Z,-0.88
2023-03-04T03:08:51.570Z,-0.87
2023-03-04T03:09:53.847Z,-0.86
2023-03-04T03:10:55.417Z,-0.85
2023-03-04T03:11:58.081Z,-0.81
2023-03-04T03:13:00.016Z,-0.80
2023-03-04T03:14:01.665Z,-0.84
2023-03-04T03:15:03.452Z,-0.92
2023-03-04T03:16:05.379Z,-1.03
2023-03-04T03:17:06.957Z,-1.07
2023-03-04T03:18:10.137Z,-1.13
2023-03-04T03:19:11.713Z,-1.13
2023-03-04T03:20:15.133Z,-1.07
2023-03-04T03:21:16.690Z,-1.07
2023-03-04T03:22:19.294Z,-1.05
2023-03-04T03:23:20.822Z,-1.06
2023-03-04T03:24:22.415Z,-1.07
2023-03-04T03:25:24.318Z,-1.09
2023-03-04T03:26:28.389Z,-1.08
2023-03-04T03:27:29.948Z,-1.09
2023-03-04T03:28:31.690Z,-1.10
2023-03-04T03:29:34.131Z,-1.09
2023-03-04T03:30:35.670Z,-1.11
2023-03-04T03:31:39.889Z,-1.13
2023-03-04T03:32:41.430Z,-1.16
2023-03-04T03:33:43.163Z,-1.32
2023-03-04T03:34:45.179Z,-1.38
2023-03-04T03:35:47.064Z,-1.48
2023-03-04T03:36:48.753Z,-1.46
2023-03-04T03:37:50.327Z,-1.39
2023-03-04T03:38:51.866Z,-1.36
2023-03-04T03:39:53.491Z,-1.30
2023-03-04T03:40:55.085Z,-1.27
2023-03-04T03:41:56.622Z,-1.27
2023-03-04T03:42:58.170Z,-1.27
2023-03-04T03:43:59.663Z,-1.23
2023-03-04T03:45:01.218Z,-1.23
2023-03-04T03:46:02.823Z,-1.25
2023-03-04T03:47:04.464Z,-1.26
2023-03-04T03:48:06.221Z,-1.26
2023-03-04T03:49:07.766Z,-1.25
2023-03-04T03:50:09.925Z,-1.25
2023-03-04T03:51:11.457Z,-1.24
2023-03-04T03:52:13.234Z,-1.24
2023-03-04T03:53:14.764Z,-1.21
2023-03-04T03:54:16.310Z,-1.34
2023-03-04T03:55:17.905Z,-1.34
2023-03-04T03:56:19.435Z,-1.37
2023-03-04T03:57:20.971Z,-1.42
2023-03-04T03:58:22.590Z,-1.46
2023-03-04T03:59:24.168Z,-1.46
2023-03-04T04:00:25.741Z,-1.42
2023-03-04T04:01:27.393Z,-1.40
2023-03-04T04:02:29.076Z,-1.37
2023-03-04T04:03:30.653Z,-1.36
2023-03-04T04:04:32.899Z,-1.38
2023-03-04T04:05:34.438Z,-1.43
2023-03-04T04:06:36.145Z,-1.43
2023-03-04T04:07:37.732Z,-1.46
2023-03-04T04:08:39.417Z,-1.52
2023-03-04T04:09:40.954Z,-1.53
2023-03-04T04:10:43.549Z,-1.51
2023-03-04T04:11:45.075Z,-1.48
2023-03-04T04:12:46.578Z,-1.43
2023-03-04T04:13:48.135Z,-1.39
2023-03-04T04:14:49.787Z,-1.51
2023-03-04T04:15:52.488Z,-1.74
2023-03-04T04:16:54.021Z,-1.72
2023-03-04T04:17:55.576Z,-1.66
2023-03-04T04:18:57.344Z,-1.57
2023-03-04T04:19:58.896Z,-1.53
2023-03-04T04:21:00.492Z,-1.59
2023-03-04T04:22:02.856Z,-1.61
2023-03-04T04:23:04.418Z,-1.70
2023-03-04T04:24:05.987Z,-1.82
2023-03-04T04:25:08.258Z,-1.86
2023-03-04T04:26:09.788Z,-1.87
2023-03-04T04:27:11.755Z,-1.77
2023-03-04T04:28:13.317Z,-1.71
2023-03-04T04:29:15.129Z,-1.67
2023-03-04T04:30:16.711Z,-1.62
2023-03-04T04:31:18.266Z,-1.72
2023-03-04T04:32:19.878Z,-1.80
2023-03-04T04:33:21.516Z,-1.75
2023-03-04T04:34:23.032Z,-1.67
2023-03-04T04:35:24.539Z,-1.73
2023-03-04T04:36:26.257Z,-1.76
2023-03-04T04:37:27.794Z,-1.83
2023-03-04T04:38:29.378Z,-1.80
2023-03-04T04:39:30.946Z,-1.79
2023-03-04T04:40:32.543Z,-1.85
2023-03-04T04:41:39.955Z,-1.80
2023-03-04T04:42:41.480Z,-1.81
2023-03-04T04:43:43.009Z,-1.85
2023-03-04T04:44:46.109Z,-1.85
2023-03-04T04:45:47.884Z,-1.83
2023-03-04T04:46:49.482Z,-1.74
2023-03-04T04:47:55.144Z,-1.66
2023-03-04T04:48:56.669Z,-1.64
2023-03-04T04:49:58.205Z,-1.59
2023-03-04T04:50:59.747Z,-1.54
2023-03-04T04:52:01.453Z,-1.48
2023-03-04T04:53:02.992Z,-1.44
2023-03-04T04:54:05.384Z,-1.38
2023-03-04T04:55:07.281Z,-1.34
2023-03-04T04:56:19.330Z,-1.28
2023-03-04T04:57:20.894Z,-1.25
2023-03-04T04:58:22.573Z,-1.22
2023-03-04T04:59:24.197Z,-1.16
2023-03-04T05:00:26.063Z,-1.10
2023-03-04T05:01:27.773Z,-1.08
2023-03-04T05:02:29.334Z,-1.09
2023-03-04T05:03:31.642Z,-1.05
2023-03-04T05:04:33.223Z,-1.02
2023-03-04T05:05:34.779Z,-0.99
2023-03-04T05:06:36.306Z,-1.00
2023-03-04T05:07:37.880Z,-0.95
2023-03-04T05:08:39.507Z,-0.91
2023-03-04T05:09:41.035Z,-0.86
2023-03-04T05:10:42.571Z,-0.86
2023-03-04T05:11:44.087Z,-0.85
2023-03-04T05:12:45.641Z,-0.79
2023-03-04T05:13:48.574Z,-0.74
2023-03-04T05:14:50.150Z,-0.68
2023-03-04T05:15:56.339Z,-0.65
2023-03-04T05:16:57.925Z,-0.61
2023-03-04T05:17:59.450Z,-0.59
2023-03-04T05:19:01.030Z,-0.55
2023-03-04T05:20:02.592Z,-0.55
2023-03-04T05:21:05.184Z,-0.55
2023-03-04T05:22:06.781Z,-0.60
2023-03-04T05:23:08.318Z,-0.66
2023-03-04T05:24:10.224Z,-0.64
2023-03-04T05:25:11.793Z,-0.71
2023-03-04T05:26:16.440Z,-0.77
2023-03-04T05:27:17.996Z,-0.77
2023-03-04T05:28:20.046Z,-0.78
2023-03-04T05:29:21.915Z,-0.76
2023-03-04T05:30:23.484Z,-0.73
2023-03-04T05:31:25.121Z,-0.68
2023-03-04T05:32:27.526Z,-0.63
2023-03-04T05:33:29.078Z,-0.63
2023-03-04T05:34:30.625Z,-0.71
2023-03-04T05:35:32.137Z,-0.78
2023-03-04T05:36:33.672Z,-0.82
2023-03-04T05:37:35.228Z,-0.83
2023-03-04T05:38:36.978Z,-0.84
2023-03-04T05:39:38.518Z,-0.82
2023-03-04T05:40:41.291Z,-0.82
2023-03-04T05:41:42.818Z,-0.85
2023-03-04T05:42:44.345Z,-0.91
2023-03-04T05:43:45.899Z,-0.98
2023-03-04T05:44:47.426Z,-0.97
2023-03-04T05:45:49.778Z,-0.93
2023-03-04T05:46:51.405Z,-0.88
2023-03-04T05:47:53.947Z,-0.93
2023-03-04T05:48:55.526Z,-1.00
2023-03-04T05:49:57.024Z,-1.03
2023-03-04T05:51:00.599Z,-1.02
2023-03-04T05:52:02.176Z,-1.03
2023-03-04T05:53:03.744Z,-1.02
2023-03-04T05:54:05.300Z,-1.10
2023-03-04T05:55:07.334Z,-1.09
2023-03-04T05:56:15.160Z,-1.10
2023-03-04T05:57:16.738Z,-1.07
2023-03-04T05:58:19.036Z,-1.05
2023-03-04T05:59:20.776Z,-1.00
2023-03-04T06:00:22.769Z,-0.97
2023-03-04T06:01:24.418Z,-1.00
2023-03-04T06:02:26.171Z,-1.11
2023-03-04T06:03:27.784Z,-1.16
2023-03-04T06:04:29.335Z,-1.17
2023-03-04T06:05:30.865Z,-1.15
2023-03-04T06:06:32.420Z,-1.14
2023-03-04T06:07:34.030Z,-1.15
2023-03-04T06:08:35.609Z,-1.11
2023-03-04T06:09:37.179Z,-1.13
2023-03-04T06:10:40.529Z,-1.25
2023-03-04T06:11:42.106Z,-1.33
2023-03-04T06:12:44.076Z,-1.35
2023-03-04T06:13:45.623Z,-1.35
2023-03-04T06:14:47.255Z,-1.34
2023-03-04T06:15:54.992Z,-1.33
2023-03-04T06:16:56.581Z,-1.31
2023-03-04T06:17:58.136Z,-1.29
2023-03-04T06:18:59.672Z,-1.22
2023-03-04T06:20:01.194Z,-1.14
2023-03-04T06:21:03.387Z,-1.06
2023-03-04T06:22:05.369Z,-1.03
2023-03-04T06:23:06.911Z,-1.08
2023-03-04T06:24:08.513Z,-1.16
2023-03-04T06:25:10.226Z,-1.13
2023-03-04T06:26:11.864Z,-1.15
2023-03-04T06:27:13.464Z,-1.13
2023-03-04T06:28:15.015Z,-1.14
2023-03-04T06:29:16.945Z,-1.10
2023-03-04T06:30:19.444Z,-1.10
2023-03-04T06:31:20.973Z,-1.11
2023-03-04T06:32:22.582Z,-1.11
2023-03-04T06:33:24.124Z,-1.08
2023-03-04T06:34:25.723Z,-1.09
2023-03-04T06:35:27.388Z,-1.14
2023-03-04T06:36:28.955Z,-1.16
2023-03-04T06:37:30.484Z,-1.18
2023-03-04T06:38:31.998Z,-1.16
2023-03-04T06:39:33.541Z,-1.18
2023-03-04T06:40:35.232Z,-1.20
2023-03-04T06:41:36.905Z,-1.20
2023-03-04T06:42:40.459Z,-1.19
2023-03-04T06:43:42.032Z,-1.16
2023-03-04T06:44:43.575Z,-1.26
2023-03-04T06:45:45.642Z,-1.31
2023-03-04T06:46:47.321Z,-1.30
2023-03-04T06:47:48.917Z,-1.32
2023-03-04T06:48:50.474Z,-1.24
2023-03-04T06:49:52.014Z,-1.25
2023-03-04T06:50:53.579Z,-1.26
2023-03-04T06:51:55.105Z,-1.23
2023-03-04T06:52:57.720Z,-1.17
2023-03-04T06:53:59.261Z,-1.17
2023-03-04T06:55:00.942Z,-1.18
2023-03-04T06:56:02.655Z,-1.13
2023-03-04T06:57:04.174Z,-1.17
2023-03-04T06:58:05.715Z,-1.18
2023-03-04T06:59:07.292Z,-1.18
2023-03-04T07:00:09.521Z,-1.14
2023-03-04T07:01:18.820Z,-1.09
2023-03-04T07:02:20.348Z,-1.05
2023-03-04T07:03:22.029Z,-1.03
2023-03-04T07:04:23.807Z,-1.02
2023-03-04T07:05:25.410Z,-1.03
2023-03-04T07:06:28.531Z,-1.02
2023-03-04T07:07:30.076Z,-1.07
2023-03-04T07:08:31.612Z,-1.12
2023-03-04T07:09:33.233Z,-1.06
2023-03-04T07:10:35.223Z,-1.03
2023-03-04T07:11:36.781Z,-1.02
2023-03-04T07:12:38.329Z,-1.00
2023-03-04T07:13:39.864Z,-1.06
2023-03-04T07:14:41.432Z,-1.05
2023-03-04T07:15:42.979Z,-0.97
2023-03-04T07:16:44.576Z,-0.95
2023-03-04T07:17:46.175Z,-1.03
2023-03-04T07:18:47.754Z,-0.99
2023-03-04T07:19:49.286Z,-0.95
2023-03-04T07:20:53.398Z,-0.91
2023-03-04T07:21:54.924Z,-0.87
2023-03-04T07:22:56.459Z,-0.91
2023-03-04T07:23:58.111Z,-0.85
2023-03-04T07:24:59.666Z,-0.77
2023-03-04T07:26:01.298Z,-0.68
2023-03-04T07:27:02.816Z,-0.66
2023-03-04T07:28:04.406Z,-0.65
2023-03-04T07:29:06.203Z,-0.69
2023-03-04T07:30:08.622Z,-0.77
2023-03-04T07:31:21.310Z,-0.90
2023-03-04T07:32:23.202Z,-0.81
2023-03-04T07:33:24.795Z,-0.78
2023-03-04T07:34:26.326Z,-0.70
2023-03-04T07:35:27.940Z,-0.74
2023-03-04T07:36:29.754Z,-0.73
2023-03-04T07:37:31.292Z,-0.70
2023-03-04T07:38:32.841Z,-0.69
2023-03-04T07:39:34.371Z,-0.67
2023-03-04T07:40:36.045Z,-0.65
2023-03-04T07:41:37.590Z,-0.65
2023-03-04T07:42:39.157Z,-0.61
2023-03-04T07:43:45.428Z,-0.62
2023-03-04T07:44:46.949Z,-0.71
2023-03-04T07:45:48.515Z,-0.71
2023-03-04T07:46:50.097Z,-0.69
2023-03-04T07:47:51.756Z,-0.67
2023-03-04T07:48:55.629Z,-0.63
2023-03-04T07:49:57.185Z,-0.58
2023-03-04T07:51:11.664Z,-0.52
2023-03-04T07:52:13.218Z,-0.47
2023-03-04T07:53:14.750Z,-0.52
2023-03-04T07:54:16.432Z,-0.50
2023-03-04T07:55:18.308Z,-0.58
2023-03-04T07:56:23.081Z,-0.57
2023-03-04T07:57:24.651Z,-0.57
2023-03-04T07:58:26.196Z,-0.55
2023-03-04T07:59:27.750Z,-0.58
2023-03-04T08:00:29.297Z,-0.63
2023-03-04T08:01:35.897Z,-0.65
2023-03-04T08:02:37.902Z,-0.74
2023-03-04T08:03:39.543Z,-0.80
2023-03-04T08:04:41.285Z,-0.78
2023-03-04T08:05:42.870Z,-0.71
2023-03-04T08:06:44.430Z,-0.68
2023-03-04T08:07:45.962Z,-0.66
2023-03-04T08:08:48.618Z,-0.82
2023-03-04T08:09:50.177Z,-0.78
2023-03-04T08:10:51.691Z,-0.76
2023-03-04T08:11:53.219Z,-0.72
2023-03-04T08:12:54.757Z,-0.67
2023-03-04T08:13:56.399Z,-0.68
2023-03-04T08:14:57.986Z,-0.65
2023-03-04T08:15:59.864Z,-0.69
2023-03-04T08:17:01.449Z,-0.72
2023-03-04T08:18:03.003Z,-0.74
2023-03-04T08:19:05.299Z,-0.74
2023-03-04T08:20:07.420Z,-0.80
2023-03-04T08:21:10.726Z,-0.79
2023-03-04T08:22:12.826Z,-0.82
2023-03-04T08:23:14.386Z,-0.93
2023-03-04T08:24:15.918Z,-0.95
2023-03-04T08:25:17.645Z,-1.03
2023-03-04T08:26:26.319Z,-0.93
2023-03-04T08:27:27.860Z,-0.87
2023-03-04T08:28:29.458Z,-0.87
2023-03-04T08:29:31.068Z,-0.78
2023-03-04T08:30:32.615Z,-0.73
2023-03-04T08:31:34.301Z,-0.73
2023-03-04T08:32:36.025Z,-0.76
2023-03-04T08:33:37.725Z,-0.74
2023-03-04T08:34:40.052Z,-0.70
2023-03-04T08:35:41.604Z,-0.69
2023-03-04T08:36:43.428Z,-0.71
2023-03-04T08:37:44.958Z,-0.75
2023-03-04T08:38:46.802Z,-0.72
2023-03-04T08:39:48.535Z,-0.71
2023-03-04T08:40:55.015Z,-0.71
2023-03-04T08:41:56.574Z,-0.68
2023-03-04T08:42:58.186Z,-0.68
2023-03-04T08:44:00.320Z,-0.60
2023-03-04T08:45:01.909Z,-0.61
2023-03-04T08:46:03.628Z,-0.60
2023-03-04T08:47:05.217Z,-0.58
2023-03-04T08:48:06.919Z,-0.52
2023-03-04T08:49:10.969Z,-0.54
2023-03-04T08:50:12.540Z,-0.55
2023-03-04T08:51:15.210Z,-0.46
2023-03-04T08:52:16.755Z,-0.32
2023-03-04T08:53:19.195Z,-0.17
2023-03-04T08:54:20.731Z,-0.09
2023-03-04T08:55:22.260Z,-0.07
2023-03-04T08:56:23.896Z,0.03
2023-03-04T08:57:25.506Z,0.08
2023-03-04T08:58:27.035Z,0.04
2023-03-04T08:59:28.559Z,0.11
2023-03-04T09:00:30.100Z,0.26
2023-03-04T09:01:31.714Z,0.42
2023-03-04T09:02:33.283Z,0.63
2023-03-04T09:03:34.992Z,0.75
2023-03-04T09:04:36.577Z,0.86
2023-03-04T09:05:38.214Z,0.93
2023-03-04T09:06:39.758Z,0.95
2023-03-04T09:07:41.311Z,1.07
2023-03-04T09:08:43.657Z,1.18
2023-03-04T09:09:45.151Z,1.29
2023-03-04T09:10:47.586Z,1.32
2023-03-04T09:11:49.197Z,1.49
2023-03-04T09:12:51.500Z,1.64
2023-03-04T09:13:53.049Z,1.70
2023-03-04T09:15:09.833Z,1.75
2023-03-04T09:16:14.550Z,1.88
2023-03-04T09:17:16.158Z,1.93
2023-03-04T09:18:19.698Z,1.99
2023-03-04T09:19:21.259Z,2.07
2023-03-04T09:20:22.783Z,2.19
2023-03-04T09:21:24.293Z,2.15
2023-03-04T09:22:25.827Z,2.18
2023-03-04T09:23:27.341Z,2.14
2023-03-04T09:24:28.906Z,2.10
2023-03-04T09:25:30.731Z,2.06
2023-03-04T09:26:32.266Z,1.98
2023-03-04T09:27:34.145Z,2.00
2023-03-04T09:28:35.710Z,1.95
2023-03-04T09:29:37.213Z,1.94
2023-03-04T09:30:38.972Z,1.78
2023-03-04T09:31:40.562Z,1.71
2023-03-04T09:32:42.139Z,1.66
2023-03-04T09:33:44.104Z,1.70
2023-03-04T09:34:45.665Z,1.72
2023-03-04T09:35:47.241Z,1.72
2023-03-04T09:36:48.773Z,1.63
2023-03-04T09:37:50.491Z,1.68
2023-03-04T09:38:52.010Z,1.78
2023-03-04T09:39:53.560Z,1.80
2023-03-04T09:40:55.330Z,1.71
2023-03-04T09:41:58.672Z,1.71
2023-03-04T09:43:03.032Z,1.69
2023-03-04T09:44:13.766Z,1.67
2023-03-04T09:45:24.875Z,1.61
2023-03-04T09:46:37.406Z,1.64
2023-03-04T09:47:39.547Z,1.67
2023-03-04T09:48:54.548Z,1.68
2023-03-04T09:50:08.782Z,1.72
2023-03-04T09:51:22.888Z,1.74
2023-03-04T09:52:33.050Z,1.70
2023-03-04T09:54:05.519Z,1.75
2023-03-04T09:55:07.109Z,1.83
2023-03-04T09:56:11.609Z,1.87
2023-03-04T09:57:25.107Z,1.82
2023-03-04T09:58:38.423Z,1.83
2023-03-04T09:59:53.116Z,1.85
2023-03-04T10:01:01.896Z,1.81
2023-03-04T10:02:20.803Z,1.78
2023-03-04T10:03:27.664Z,1.80
2023-03-04T10:04:37.162Z,1.73
2023-03-04T10:05:51.802Z,1.81
2023-03-04T10:06:54.565Z,1.91
2023-03-04T10:07:59.646Z,1.96
2023-03-04T10:09:22.888Z,2.03
2023-03-04T10:10:30.469Z,2.06
2023-03-04T10:11:45.860Z,2.27
2023-03-04T10:12:50.025Z,2.38
2023-03-04T10:13:57.594Z,2.50
2023-03-04T10:15:03.936Z,2.56
2023-03-04T10:16:11.328Z,2.63
2023-03-04T10:17:34.834Z,2.69
2023-03-04T10:18:55.201Z,2.74
2023-03-04T10:20:21.414Z,2.83
2023-03-04T10:21:43.388Z,2.80
2023-03-04T10:22:46.622Z,2.83
2023-03-04T10:23:49.068Z,2.94
2023-03-04T10:24:55.803Z,3.06
2023-03-04T10:26:01.808Z,3.21
2023-03-04T10:27:10.550Z,3.29
2023-03-04T10:28:30.303Z,3.44
2023-03-04T10:29:33.514Z,3.56
2023-03-04T10:31:01.326Z,3.55
2023-03-04T10:32:02.987Z,3.54
2023-03-04T10:33:22.559Z,3.56
2023-03-04T10:34:24.449Z,3.52
2023-03-04T10:35:33.293Z,3.58
2023-03-04T10:36:47.657Z,3.60
2023-03-04T10:37:50.842Z,3.66
2023-03-04T10:39:01.995Z,3.65
2023-03-04T10:40:03.955Z,3.71
2023-03-04T10:41:25.221Z,3.73
2023-03-04T10:42:29.607Z,3.63
2023-03-04T10:43:31.212Z,3.56
2023-03-04T10:44:35.018Z,3.57
2023-03-04T10:45:40.267Z,3.48
2023-03-04T10:46:46.532Z,3.27
2023-03-04T10:47:57.051Z,3.17
2023-03-04T10:48:58.930Z,3.19
2023-03-04T10:50:03.438Z,3.15
2023-03-04T10:51:23.797Z,3.12
2023-03-04T10:52:34.512Z,3.07
2023-03-04T10:53:41.785Z,3.04
2023-03-04T10:54:53.779Z,2.99
2023-03-04T10:55:55.394Z,2.94
2023-03-04T10:57:05.465Z,2.98
2023-03-04T10:58:11.290Z,3.07
2023-03-04T10:59:51.303Z,3.03
2023-03-04T11:01:05.520Z,3.11
2023-03-04T11:02:22.212Z,3.04
2023-03-04T11:03:37.359Z,3.05
2023-03-04T11:04:39.016Z,3.02
2023-03-04T11:05:40.607Z,2.98
2023-03-04T11:06:42.151Z,2.94
2023-03-04T11:07:55.879Z,2.93
2023-03-04T11:08:59.744Z,3.03
2023-03-04T11:10:14.513Z,2.96
2023-03-04T11:11:52.324Z,2.89
2023-03-04T11:13:07.349Z,2.95
2023-03-04T11:14:19.510Z,3.00
2023-03-04T11:15:23.596Z,3.09
2023-03-04T11:16:28.046Z,3.01
2023-03-04T11:17:51.957Z,3.07
2023-03-04T11:18:58.027Z,3.09
2023-03-04T11:20:12.494Z,3.08
2023-03-04T11:21:17.675Z,3.02
2023-03-04T11:22:22.970Z,2.98
2023-03-04T11:23:45.242Z,2.98
2023-03-04T11:24:58.243Z,2.95
2023-03-04T11:26:07.978Z,2.91
2023-03-04T11:27:25.662Z,2.93
2023-03-04T11:28:42.004Z,2.82
2023-03-04T11:30:09.077Z,2.87
2023-03-04T11:31:22.574Z,2.79
2023-03-04T11:32:28.300Z,2.71
2023-03-04T11:33:47.075Z,2.62
2023-03-04T11:34:54.888Z,2.59
2023-03-04T11:36:04.557Z,2.57
2023-03-04T11:37:18.944Z,2.58
2023-03-04T11:38:26.292Z,2.56
2023-03-04T11:39:41.121Z,2.52
2023-03-04T11:40:45.217Z,2.54
2023-03-04T11:41:58.582Z,2.60
2023-03-04T11:43:07.730Z,2.60
2023-03-04T11:44:11.934Z,2.64
2023-03-04T11:45:29.457Z,2.67
2023-03-04T11:46:44.177Z,2.66
2023-03-04T11:48:04.177Z,2.68
2023-03-04T11:49:43.263Z,2.69
2023-03-04T11:51:06.829Z,2.69
2023-03-04T11:52:11.157Z,2.62
2023-03-04T11:53:33.703Z,2.65
2023-03-04T11:54:51.422Z,2.64
2023-03-04T11:56:14.601Z,2.65
2023-03-04T11:57:37.890Z,2.66
2023-03-04T11:59:00.150Z,2.63
2023-03-04T12:00:37.038Z,2.68
2023-03-04T12:01:53.690Z,2.71
2023-03-04T12:03:01.023Z,2.77
2023-03-04T12:04:23.664Z,2.74
2023-03-04T12:05:32.387Z,2.74
2023-03-04T12:07:01.115Z,2.81
2023-03-04T12:08:12.875Z,2.85
2023-03-04T12:09:39.819Z,2.76
2023-03-04T12:10:49.293Z,2.73
2023-03-04T12:12:12.173Z,2.72
2023-03-04T12:13:22.502Z,2.73
2023-03-04T12:14:27.449Z,2.72
2023-03-04T12:15:44.261Z,2.66
2023-03-04T12:17:09.598Z,2.66
2023-03-04T12:18:32.664Z,2.67
2023-03-04T12:20:02.811Z,2.61
2023-03-04T12:21:22.881Z,2.60
2023-03-04T12:22:27.202Z,2.58
2023-03-04T12:23:43.711Z,2.60
2023-03-04T12:25:10.076Z,2.61
2023-03-04T12:26:33.047Z,2.55
2023-03-04T12:27:47.824Z,2.58
2023-03-04T12:28:57.949Z,2.59
2023-03-04T12:30:34.660Z,2.60
2023-03-04T12:31:40.832Z,2.60
2023-03-04T12:32:54.097Z,2.53
2023-03-04T12:34:35.688Z,2.56
2023-03-04T12:35:41.633Z,2.54
2023-03-04T12:36:43.153Z,2.52
2023-03-04T12:37:47.623Z,2.52
2023-03-04T12:39:25.759Z,2.56
2023-03-04T12:40:37.362Z,2.61
2023-03-04T12:41:41.785Z,2.59
2023-03-04T12:42:57.163Z,2.54
2023-03-04T12:44:18.264Z,2.52
2023-03-04T12:45:40.604Z,2.58
2023-03-04T12:47:03.972Z,2.56
2023-03-04T12:48:25.164Z,2.56
2023-03-04T12:49:34.587Z,2.56
2023-03-04T12:50:54.401Z,2.55
2023-03-04T12:52:11.128Z,2.55
2023-03-04T12:53:28.006Z,2.51
2023-03-04T12:55:09.245Z,2.50
2023-03-04T12:56:42.946Z,2.53
2023-03-04T12:57:45.034Z,2.57
2023-03-04T12:58:46.865Z,2.55
2023-03-04T12:59:54.145Z,2.56
2023-03-04T13:01:16.028Z,2.52
2023-03-04T13:02:40.031Z,2.52
2023-03-04T13:03:44.281Z,2.48
2023-03-04T13:05:23.027Z,2.44
2023-03-04T13:06:57.163Z,2.51
2023-03-04T13:08:19.504Z,2.49
2023-03-04T13:09:31.840Z,2.50
2023-03-04T13:10:33.403Z,2.52
2023-03-04T13:11:45.262Z,2.53
2023-03-04T13:13:03.619Z,2.51
2023-03-04T13:14:06.491Z,2.57
2023-03-04T13:15:08.016Z,2.54
2023-03-04T13:16:18.358Z,2.58
2023-03-04T13:17:38.637Z,2.66
2023-03-04T13:18:40.305Z,2.69
2023-03-04T13:19:55.886Z,2.72
2023-03-04T13:21:15.748Z,2.73
2023-03-04T13:22:32.260Z,2.69
2023-03-04T13:23:33.917Z,2.70
2023-03-04T13:24:47.549Z,2.76
2023-03-04T13:26:08.331Z,2.73
2023-03-04T13:27:44.802Z,2.64
2023-03-04T13:28:46.448Z,2.66
2023-03-04T13:29:48.042Z,2.67
2023-03-04T13:30:53.138Z,2.73
2023-03-04T13:32:03.401Z,2.72
2023-03-04T13:33:10.616Z,2.69
2023-03-04T13:34:47.020Z,2.70
2023-03-04T13:35:58.305Z,2.73
2023-03-04T13:37:00.223Z,2.73
2023-03-04T13:38:04.622Z,2.75
2023-03-04T13:39:15.352Z,2.75
2023-03-04T13:40:24.654Z,2.73
2023-03-04T13:41:32.435Z,2.75
2023-03-04T13:42:44.462Z,2.67
2023-03-04T13:44:04.055Z,2.69
2023-03-04T13:45:25.838Z,2.67
2023-03-04T13:46:27.341Z,2.69
2023-03-04T13:47:43.893Z,2.72
2023-03-04T13:48:51.548Z,2.72
2023-03-04T13:50:22.094Z,2.70
2023-03-04T13:51:36.986Z,2.72
2023-03-04T13:52:41.729Z,2.70
2023-03-04T13:56:00.734Z,2.77
2023-03-04T13:57:16.978Z,2.77
2023-03-04T13:58:25.984Z,2.80
2023-03-04T13:59:29.047Z,2.79
2023-03-04T14:00:30.724Z,2.79
2023-03-04T14:01:35.135Z,2.78
2023-03-04T14:02:36.752Z,2.78
2023-03-04T14:03:38.465Z,2.72
2023-03-04T14:04:42.435Z,2.71
2023-03-04T14:05:43.993Z,2.73
2023-03-04T14:06:47.634Z,2.72
2023-03-04T14:07:49.303Z,2.72
2023-03-04T14:08:52.524Z,2.72
2023-03-04T14:10:12.089Z,2.69
2023-03-04T14:11:19.040Z,2.73
2023-03-04T14:12:21.278Z,2.75
2023-03-04T14:13:22.949Z,2.74
2023-03-04T14:14:28.475Z,2.75